createdAt,value
2022-12-05T00:02:04.957Z,97864.00
2022-12-05T00:04:40.009Z,97857.00
2022-12-05T00:07:14.938Z,97868.00
2022-12-05T00:09:50.911Z,97855.00
2022-12-05T00:12:25.814Z,97863.00
2022-12-05T00:15:00.768Z,97866.00
2022-12-05T00:17:35.652Z,97859.00
2022-12-05T00:20:10.964Z,97857.00
2022-12-05T00:22:45.849Z,97867.00
2022-12-05T00:25:20.758Z,97864.00
2022-12-05T00:27:55.644Z,97874.00
2022-12-05T00:30:30.939Z,97858.00
2022-12-05T00:33:05.809Z,97854.00
2022-12-05T00:35:40.754Z,97860.00
2022-12-05T00:38:15.619Z,97870.00
2022-12-05T00:40:50.519Z,97856.00
2022-12-05T00:43:25.436Z,97852.00
2022-12-05T00:46:10.550Z,97858.00
2022-12-05T00:48:45.820Z,97860.00
2022-12-05T00:51:34.082Z,97876.00
2022-12-05T00:54:15.762Z,97870.00
2022-12-05T00:56:52.593Z,97871.00
2022-12-05T00:59:27.582Z,97863.00
2022-12-05T01:02:02.467Z,97868.00
2022-12-05T01:04:37.355Z,97883.00
2022-12-05T01:07:12.341Z,97883.00
2022-12-05T01:09:47.236Z,97893.00
2022-12-05T01:12:22.138Z,97885.00
2022-12-05T01:14:57.082Z,97888.00
2022-12-05T01:17:32.115Z,97900.00
2022-12-05T01:20:07.993Z,97909.00
2022-12-05T01:22:42.919Z,97920.00
2022-12-05T01:25:17.903Z,97921.00
2022-12-05T01:27:52.958Z,97914.00
2022-12-05T01:30:27.903Z,97915.00
2022-12-05T01:33:02.917Z,97910.00
2022-12-05T01:35:39.894Z,97923.00
2022-12-05T01:38:15.951Z,97912.00
2022-12-05T01:40:50.900Z,97912.00
2022-12-05T01:43:25.860Z,97915.00
2022-12-05T01:46:00.822Z,97912.00
2022-12-05T01:48:36.118Z,97911.00
2022-12-05T01:51:11.417Z,97924.00
2022-12-05T01:53:46.329Z,97920.00
2022-12-05T01:56:21.505Z,97922.00
2022-12-05T01:58:56.901Z,97913.00
2022-12-05T02:01:32.365Z,97916.00
2022-12-05T02:04:08.079Z,97910.00
2022-12-05T02:06:43.238Z,97921.00
2022-12-05T02:09:18.139Z,97922.00
2022-12-05T02:11:58.861Z,97916.00
2022-12-05T02:15:20.822Z,97926.00
2022-12-05T02:18:20.375Z,97932.00
2022-12-05T02:20:55.179Z,97930.00
2022-12-05T02:24:09.608Z,97933.00
2022-12-05T02:27:10.383Z,97930.00
2022-12-05T02:30:08.099Z,97943.00
2022-12-05T02:32:57.230Z,97945.00
2022-12-05T02:36:15.170Z,97953.00
2022-12-05T02:39:15.731Z,97967.00
2022-12-05T02:42:19.874Z,97977.00
2022-12-05T02:45:00.541Z,97978.00
2022-12-05T02:47:42.358Z,97986.00
2022-12-05T02:50:25.437Z,97973.00
2022-12-05T02:53:08.567Z,97968.00
2022-12-05T02:55:44.589Z,97973.00
2022-12-05T02:58:31.159Z,97973.00
2022-12-05T03:01:06.640Z,97991.00
2022-12-05T03:03:41.693Z,97999.00
2022-12-05T03:06:25.770Z,97991.00
2022-12-05T03:09:10.131Z,97980.00
2022-12-05T03:11:52.529Z,97975.00
2022-12-05T03:14:34.710Z,97968.00
2022-12-05T03:17:18.302Z,97966.00
2022-12-05T03:20:16.143Z,97971.00
2022-12-05T03:22:59.444Z,97965.00
2022-12-05T03:26:02.115Z,97956.00
2022-12-05T03:28:48.971Z,97958.00
2022-12-05T03:31:58.459Z,97966.00
2022-12-05T03:34:52.404Z,97951.00
2022-12-05T03:37:35.673Z,97965.00
2022-12-05T03:40:41.712Z,97977.00
2022-12-05T03:43:37.979Z,97966.00
2022-12-05T03:46:29.210Z,97968.00
2022-12-05T03:49:16.050Z,97974.00
2022-12-05T03:51:59.618Z,97956.00
2022-12-05T03:55:01.195Z,97983.00
2022-12-05T03:57:59.088Z,97974.00
2022-12-05T04:00:39.816Z,97980.00
2022-12-05T04:03:51.876Z,97979.00
2022-12-05T04:06:34.956Z,97962.00
2022-12-05T04:09:17.701Z,97967.00
2022-12-05T04:12:00.615Z,97950.00
2022-12-05T04:14:40.831Z,97955.00
2022-12-05T04:17:51.924Z,97963.00
2022-12-05T04:20:58.183Z,97965.00
2022-12-05T04:23:33.669Z,97966.00
2022-12-05T04:26:31.278Z,97969.00
2022-12-05T04:29:29.477Z,97975.00
2022-12-05T04:32:09.491Z,97985.00
2022-12-05T04:34:55.942Z,97979.00
2022-12-05T04:37:35.652Z,97985.00
2022-12-05T04:40:38.278Z,97989.00
2022-12-05T04:43:15.371Z,97992.00
2022-12-05T04:45:52.373Z,97991.00
2022-12-05T04:48:28.680Z,97992.00
2022-12-05T04:51:07.689Z,97990.00
2022-12-05T04:53:45.601Z,97994.00
2022-12-05T04:56:22.252Z,98002.00
2022-12-05T04:58:57.358Z,98000.00
2022-12-05T05:01:42.345Z,97989.00
2022-12-05T05:04:43.353Z,97991.00
2022-12-05T05:07:19.344Z,98002.00
2022-12-05T05:09:55.883Z,97995.00
2022-12-05T05:12:30.975Z,97999.00
2022-12-05T05:15:06.712Z,98000.00
2022-12-05T05:17:41.640Z,98003.00
2022-12-05T05:20:27.078Z,98008.00
2022-12-05T05:23:02.047Z,98012.00
2022-12-05T05:25:37.056Z,98007.00
2022-12-05T05:28:12.063Z,98000.00
2022-12-05T05:30:48.483Z,97997.00
2022-12-05T05:33:23.470Z,98024.00
2022-12-05T05:36:02.819Z,98041.00
2022-12-05T05:38:40.245Z,98046.00
2022-12-05T05:41:34.944Z,98045.00
2022-12-05T05:44:10.647Z,98041.00
2022-12-05T05:46:45.832Z,98056.00
2022-12-05T05:49:20.769Z,98058.00
2022-12-05T05:51:55.601Z,98068.00
2022-12-05T05:54:30.532Z,98065.00
2022-12-05T05:57:05.418Z,98055.00
2022-12-05T05:59:40.281Z,98060.00
2022-12-05T06:02:16.036Z,98053.00
2022-12-05T06:04:50.960Z,98052.00
2022-12-05T06:07:27.437Z,98047.00
2022-12-05T06:10:02.603Z,98034.00
2022-12-05T06:12:38.088Z,98037.00
2022-12-05T06:15:13.205Z,98043.00
2022-12-05T06:17:48.182Z,98052.00
2022-12-05T06:20:23.145Z,98058.00
2022-12-05T06:22:58.091Z,98056.00
2022-12-05T06:25:33.187Z,98054.00
2022-12-05T06:28:08.303Z,98062.00
2022-12-05T06:30:43.223Z,98049.00
2022-12-05T06:33:19.160Z,98037.00
2022-12-05T06:36:13.271Z,98054.00
2022-12-05T06:38:48.599Z,98074.00
2022-12-05T06:41:24.720Z,98076.00
2022-12-05T06:44:02.148Z,98090.00
2022-12-05T06:46:37.556Z,98088.00
2022-12-05T06:49:12.608Z,98091.00
2022-12-05T06:51:47.527Z,98088.00
2022-12-05T06:54:22.496Z,98096.00
2022-12-05T06:56:57.357Z,98109.00
2022-12-05T06:59:32.184Z,98099.00
2022-12-05T07:02:08.461Z,98095.00
2022-12-05T07:04:43.553Z,98099.00
2022-12-05T07:07:18.455Z,98101.00
2022-12-05T07:09:53.831Z,98100.00
2022-12-05T07:12:28.725Z,98107.00
2022-12-05T07:15:04.878Z,98107.00
2022-12-05T07:17:39.865Z,98099.00
2022-12-05T07:20:17.834Z,98103.00
2022-12-05T07:22:52.780Z,98101.00
2022-12-05T07:25:27.693Z,98105.00
2022-12-05T07:28:02.529Z,98124.00
2022-12-05T07:30:37.360Z,98122.00
2022-12-05T07:33:12.328Z,98120.00
2022-12-05T07:35:47.210Z,98122.00
2022-12-05T07:38:22.055Z,98138.00
2022-12-05T07:40:57.262Z,98132.00
2022-12-05T07:43:32.391Z,98140.00
2022-12-05T07:46:11.313Z,98129.00
2022-12-05T07:48:47.703Z,98138.00
2022-12-05T07:51:22.846Z,98136.00
2022-12-05T07:53:59.883Z,98134.00
2022-12-05T07:56:34.801Z,98128.00
2022-12-05T07:59:09.683Z,98132.00
2022-12-05T08:01:44.642Z,98134.00
2022-12-05T08:04:19.568Z,98132.00
2022-12-05T08:06:54.518Z,98132.00
2022-12-05T08:09:29.557Z,98134.00
2022-12-05T08:12:04.821Z,98138.00
2022-12-05T08:14:39.688Z,98150.00
2022-12-05T08:17:14.630Z,98133.00
2022-12-05T08:19:49.596Z,98146.00
2022-12-05T08:22:24.527Z,98152.00
2022-12-05T08:24:59.484Z,98149.00
2022-12-05T08:27:34.412Z,98155.00
2022-12-05T08:30:09.493Z,98159.00
2022-12-05T08:32:44.345Z,98164.00
2022-12-05T08:35:19.213Z,98158.00
2022-12-05T08:37:54.092Z,98170.00
2022-12-05T08:40:29.018Z,98167.00
2022-12-05T08:43:04.005Z,98180.00
2022-12-05T08:45:38.872Z,98181.00
2022-12-05T08:48:13.737Z,98185.00
2022-12-05T08:50:48.899Z,98181.00
2022-12-05T08:53:23.811Z,98186.00
2022-12-05T08:56:03.630Z,98186.00
2022-12-05T08:58:39.299Z,98184.00
2022-12-05T09:01:17.975Z,98188.00
2022-12-05T09:03:52.846Z,98189.00
2022-12-05T09:06:29.418Z,98191.00
2022-12-05T09:09:11.318Z,98194.00
2022-12-05T09:11:48.810Z,98189.00
2022-12-05T09:14:24.330Z,98187.00
2022-12-05T09:17:00.962Z,98192.00
2022-12-05T09:19:35.928Z,98197.00
2022-12-05T09:22:10.825Z,98211.00
2022-12-05T09:24:45.733Z,98210.00
2022-12-05T09:27:20.757Z,98209.00
2022-12-05T09:29:56.037Z,98215.00
2022-12-05T09:32:31.012Z,98215.00
2022-12-05T09:35:06.297Z,98217.00
2022-12-05T09:37:41.275Z,98211.00
2022-12-05T09:40:18.705Z,98218.00
2022-12-05T09:43:07.165Z,98218.00
2022-12-05T09:46:18.688Z,98217.00
2022-12-05T09:48:55.397Z,98227.00
2022-12-05T09:51:31.246Z,98222.00
2022-12-05T09:54:06.291Z,98229.00
2022-12-05T09:56:44.552Z,98232.00
2022-12-05T09:59:20.868Z,98238.00
2022-12-05T10:02:22.643Z,98229.00
2022-12-05T10:05:09.950Z,98233.00
2022-12-05T10:08:06.720Z,98227.00
2022-12-05T10:11:06.618Z,98230.00
2022-12-05T10:14:16.964Z,98227.00
2022-12-05T10:17:01.931Z,98235.00
2022-12-05T10:19:49.826Z,98229.00
2022-12-05T10:22:51.159Z,98232.00
2022-12-05T10:25:28.216Z,98239.00
2022-12-05T10:28:14.568Z,98236.00
2022-12-05T10:30:52.561Z,98227.00
2022-12-05T10:33:36.297Z,98229.00
2022-12-05T10:36:15.070Z,98233.00
2022-12-05T10:38:52.582Z,98219.00
2022-12-05T10:41:28.924Z,98223.00
2022-12-05T10:44:05.815Z,98214.00
2022-12-05T10:46:40.859Z,98208.00
2022-12-05T10:49:15.811Z,98213.00
2022-12-05T10:51:51.915Z,98215.00
2022-12-05T10:54:31.787Z,98218.00
2022-12-05T10:57:26.257Z,98216.00
2022-12-05T11:00:16.155Z,98222.00
2022-12-05T11:02:51.469Z,98219.00
2022-12-05T11:05:32.249Z,98219.00
2022-12-05T11:09:02.426Z,98208.00
2022-12-05T11:11:30.369Z,98211.00
2022-12-05T11:14:22.130Z,98201.00
2022-12-05T11:17:01.113Z,98213.00
2022-12-05T11:19:38.428Z,98215.00
2022-12-05T11:22:17.864Z,98219.00
2022-12-05T11:24:52.812Z,98218.00
2022-12-05T11:27:32.535Z,98212.00
2022-12-05T11:30:20.292Z,98205.00
2022-12-05T11:33:19.132Z,98203.00
2022-12-05T11:35:58.099Z,98194.00
2022-12-05T11:38:34.688Z,98200.00
2022-12-05T11:41:35.652Z,98204.00
2022-12-05T11:44:43.951Z,98201.00
2022-12-05T11:47:37.238Z,98198.00
2022-12-05T11:50:48.960Z,98196.00
2022-12-05T11:53:58.663Z,98193.00
2022-12-05T11:56:46.412Z,98189.00
2022-12-05T12:00:08.699Z,98195.00
2022-12-05T12:03:33.395Z,98197.00
2022-12-05T12:06:23.695Z,98196.00
2022-12-05T12:09:25.827Z,98189.00
2022-12-05T12:12:46.114Z,98187.00
2022-12-05T12:15:35.329Z,98193.00
2022-12-05T12:18:33.415Z,98191.00
2022-12-05T12:21:56.437Z,98190.00
2022-12-05T12:24:48.060Z,98184.00
2022-12-05T12:28:04.216Z,98186.00
2022-12-05T12:30:56.688Z,98189.00
2022-12-05T12:33:47.052Z,98189.00
2022-12-05T12:36:36.385Z,98197.00
2022-12-05T12:39:30.217Z,98194.00
2022-12-05T12:42:32.013Z,98189.00
2022-12-05T12:45:37.995Z,98186.00
2022-12-05T12:48:58.056Z,98187.00
2022-12-05T12:51:35.986Z,98185.00
2022-12-05T12:55:01.532Z,98188.00
2022-12-05T12:57:43.010Z,98185.00
2022-12-05T13:00:47.880Z,98172.00
2022-12-05T13:03:39.668Z,98175.00
2022-12-05T13:06:32.646Z,98181.00
2022-12-05T13:09:37.201Z,98186.00
2022-12-05T13:12:17.548Z,98188.00
2022-12-05T13:15:00.486Z,98176.00
2022-12-05T13:17:39.453Z,98178.00
2022-12-05T13:20:28.141Z,98183.00
2022-12-05T13:23:08.498Z,98177.00
2022-12-05T13:25:46.062Z,98175.00
2022-12-05T13:28:42.376Z,98177.00
2022-12-05T13:31:19.381Z,98182.00
2022-12-05T13:33:54.513Z,98169.00
2022-12-05T13:36:58.783Z,98174.00
2022-12-05T13:39:57.891Z,98176.00
2022-12-05T13:42:36.384Z,98173.00
2022-12-05T13:45:18.585Z,98182.00
2022-12-05T13:48:15.254Z,98184.00
2022-12-05T13:51:03.309Z,98195.00
2022-12-05T13:53:43.864Z,98191.00
2022-12-05T13:56:18.639Z,98188.00
2022-12-05T13:58:57.194Z,98192.00
2022-12-05T14:01:55.278Z,98197.00
2022-12-05T14:04:51.033Z,98204.00
2022-12-05T14:07:43.952Z,98201.00
2022-12-05T14:10:43.355Z,98205.00
2022-12-05T14:13:18.422Z,98220.00
2022-12-05T14:15:54.921Z,98218.00
2022-12-05T14:18:52.615Z,98211.00
2022-12-05T14:22:00.626Z,98208.00
2022-12-05T14:25:10.312Z,98212.00
2022-12-05T14:28:04.410Z,98215.00
2022-12-05T14:30:52.129Z,98214.00
2022-12-05T14:33:27.091Z,98224.00
2022-12-05T14:36:08.762Z,98224.00
2022-12-05T14:38:44.815Z,98227.00
2022-12-05T14:41:34.852Z,98233.00
2022-12-05T14:44:19.272Z,98230.00
2022-12-05T14:46:54.518Z,98231.00
2022-12-05T14:49:52.782Z,98232.00
2022-12-05T14:52:30.619Z,98231.00
2022-12-05T14:55:14.319Z,98231.00
2022-12-05T14:57:49.875Z,98241.00
2022-12-05T15:00:24.742Z,98228.00
2022-12-05T15:03:01.494Z,98227.00
2022-12-05T15:05:36.798Z,98227.00
2022-12-05T15:08:15.885Z,98236.00
2022-12-05T15:10:52.543Z,98235.00
2022-12-05T15:13:29.838Z,98234.00
2022-12-05T15:16:14.993Z,98232.00
2022-12-05T15:18:52.091Z,98231.00
2022-12-05T15:21:49.051Z,98230.00
2022-12-05T15:24:24.632Z,98226.00
2022-12-05T15:27:03.694Z,98232.00
2022-12-05T15:29:41.085Z,98232.00
2022-12-05T15:32:21.876Z,98223.00
2022-12-05T15:34:56.880Z,98223.00
2022-12-05T15:38:05.927Z,98235.00
2022-12-05T15:40:47.607Z,98235.00
2022-12-05T15:43:32.076Z,98255.00
2022-12-05T15:46:24.295Z,98248.00
2022-12-05T15:49:01.166Z,98260.00
2022-12-05T15:51:38.317Z,98252.00
2022-12-05T15:54:29.151Z,98264.00
2022-12-05T15:57:12.634Z,98260.00
2022-12-05T16:00:05.229Z,98269.00
2022-12-05T16:02:59.510Z,98267.00
2022-12-05T16:05:44.813Z,98278.00
2022-12-05T16:08:20.446Z,98263.00
2022-12-05T16:10:55.697Z,98264.00
2022-12-05T16:13:30.556Z,98266.00
2022-12-05T16:16:06.384Z,98268.00
2022-12-05T16:18:55.984Z,98266.00
2022-12-05T16:21:38.941Z,98272.00
2022-12-05T16:24:21.604Z,98267.00
2022-12-05T16:27:27.190Z,98281.00
2022-12-05T16:30:20.814Z,98281.00
2022-12-05T16:33:03.519Z,98284.00
2022-12-05T16:35:51.281Z,98291.00
2022-12-05T16:38:29.805Z,98289.00
2022-12-05T16:41:08.531Z,98293.00
2022-12-05T16:43:45.837Z,98293.00
2022-12-05T16:46:27.672Z,98294.00
2022-12-05T16:49:42.721Z,98294.00
2022-12-05T16:52:20.626Z,98290.00
2022-12-05T16:54:55.758Z,98284.00
2022-12-05T16:57:30.777Z,98285.00
2022-12-05T17:00:13.797Z,98291.00
2022-12-05T17:02:55.167Z,98288.00
2022-12-05T17:05:30.542Z,98290.00
2022-12-05T17:08:05.805Z,98289.00
2022-12-05T17:10:42.655Z,98290.00
2022-12-05T17:13:19.088Z,98300.00
2022-12-05T17:15:54.065Z,98296.00
2022-12-05T17:18:31.853Z,98299.00
2022-12-05T17:21:13.011Z,98296.00
2022-12-05T17:23:48.771Z,98298.00
2022-12-05T17:26:23.896Z,98290.00
2022-12-05T17:28:58.812Z,98283.00
2022-12-05T17:31:33.964Z,98280.00
2022-12-05T17:34:17.865Z,98269.00
2022-12-05T17:36:52.701Z,98289.00
2022-12-05T17:39:28.768Z,98296.00
2022-12-05T17:42:04.156Z,98302.00
2022-12-05T17:44:39.424Z,98300.00
2022-12-05T17:47:14.625Z,98295.00
2022-12-05T17:49:49.725Z,98289.00
2022-12-05T17:52:24.599Z,98298.00
2022-12-05T17:55:00.046Z,98291.00
2022-12-05T17:57:35.253Z,98289.00
2022-12-05T18:00:11.744Z,98292.00
2022-12-05T18:02:46.925Z,98286.00
2022-12-05T18:05:21.872Z,98285.00
2022-12-05T18:07:57.805Z,98287.00
2022-12-05T18:10:32.772Z,98288.00
2022-12-05T18:13:07.734Z,98286.00
2022-12-05T18:15:43.590Z,98288.00
2022-12-05T18:18:18.946Z,98288.00
2022-12-05T18:20:55.993Z,98285.00
2022-12-05T18:23:31.944Z,98280.00
2022-12-05T18:26:09.827Z,98287.00
2022-12-05T18:28:46.928Z,98284.00
2022-12-05T18:31:21.779Z,98284.00
2022-12-05T18:33:56.835Z,98288.00
2022-12-05T18:36:31.829Z,98296.00
2022-12-05T18:39:07.179Z,98302.00
2022-12-05T18:41:42.669Z,98297.00
2022-12-05T18:44:19.909Z,98296.00
2022-12-05T18:46:54.883Z,98298.00
2022-12-05T18:49:29.815Z,98302.00
2022-12-05T18:52:04.865Z,98307.00
2022-12-05T18:54:39.721Z,98305.00
2022-12-05T18:57:14.626Z,98312.00
2022-12-05T18:59:51.919Z,98312.00
2022-12-05T19:02:27.250Z,98315.00
2022-12-05T19:05:02.414Z,98315.00
2022-12-05T19:07:37.818Z,98308.00
2022-12-05T19:10:12.734Z,98303.00
2022-12-05T19:12:47.659Z,98321.00
2022-12-05T19:15:23.673Z,98308.00
2022-12-05T19:17:58.514Z,98314.00
2022-12-05T19:20:33.523Z,98311.00
2022-12-05T19:23:08.433Z,98323.00
2022-12-05T19:25:43.729Z,98308.00
2022-12-05T19:28:18.570Z,98317.00
2022-12-05T19:31:12.567Z,98317.00
2022-12-05T19:33:58.535Z,98324.00
2022-12-05T19:36:47.087Z,98317.00
2022-12-05T19:39:26.739Z,98314.00
2022-12-05T19:42:02.368Z,98325.00
2022-12-05T19:44:37.567Z,98323.00
2022-12-05T19:47:12.481Z,98334.00
2022-12-05T19:49:47.420Z,98323.00
2022-12-05T19:52:22.372Z,98326.00
2022-12-05T19:54:58.623Z,98320.00
2022-12-05T19:57:36.656Z,98318.00
2022-12-05T20:00:12.600Z,98326.00
2022-12-05T20:02:50.351Z,98324.00
2022-12-05T20:05:25.446Z,98324.00
2022-12-05T20:08:00.725Z,98325.00
2022-12-05T20:10:37.717Z,98328.00
2022-12-05T20:13:44.644Z,98330.00
2022-12-05T20:16:10.438Z,98331.00
2022-12-05T20:18:46.434Z,98328.00
2022-12-05T20:21:22.883Z,98322.00
2022-12-05T20:24:00.898Z,98321.00
2022-12-05T20:26:42.936Z,98318.00
2022-12-05T20:29:19.703Z,98323.00
2022-12-05T20:31:56.785Z,98326.00
2022-12-05T20:34:32.010Z,98312.00
2022-12-05T20:37:06.931Z,98318.00
2022-12-05T20:39:41.896Z,98321.00
2022-12-05T20:42:17.833Z,98325.00
2022-12-05T20:44:52.828Z,98318.00
2022-12-05T20:47:27.684Z,98329.00
2022-12-05T20:50:02.580Z,98322.00
2022-12-05T20:52:41.009Z,98329.00
2022-12-05T20:55:18.614Z,98324.00
2022-12-05T20:57:53.432Z,98337.00
2022-12-05T21:00:28.388Z,98334.00
2022-12-05T21:03:04.121Z,98330.00
2022-12-05T21:05:39.208Z,98326.00
2022-12-05T21:08:14.184Z,98329.00
2022-12-05T21:10:52.455Z,98330.00
2022-12-05T21:13:27.525Z,98329.00
2022-12-05T21:16:09.633Z,98323.00
2022-12-05T21:18:45.335Z,98321.00
2022-12-05T21:21:26.077Z,98317.00
2022-12-05T21:24:03.308Z,98313.00
2022-12-05T21:26:39.834Z,98320.00
2022-12-05T21:29:14.758Z,98320.00
2022-12-05T21:31:50.871Z,98307.00
2022-12-05T21:34:25.711Z,98317.00
2022-12-05T21:37:01.065Z,98316.00
2022-12-05T21:39:36.679Z,98316.00
2022-12-05T21:42:11.644Z,98323.00
2022-12-05T21:44:46.469Z,98318.00
2022-12-05T21:47:21.364Z,98316.00
2022-12-05T21:49:56.357Z,98318.00
2022-12-05T21:52:39.175Z,98308.00
2022-12-05T21:55:14.153Z,98314.00
2022-12-05T21:57:49.140Z,98318.00
2022-12-05T22:00:23.992Z,98310.00
2022-12-05T22:02:58.908Z,98312.00
2022-12-05T22:05:33.862Z,98317.00
2022-12-05T22:08:11.156Z,98311.00
2022-12-05T22:10:46.540Z,98313.00
2022-12-05T22:13:21.396Z,98310.00
2022-12-05T22:15:59.044Z,98315.00
2022-12-05T22:18:35.003Z,98318.00
2022-12-05T22:21:21.083Z,98311.00
2022-12-05T22:23:56.424Z,98309.00
2022-12-05T22:26:31.318Z,98317.00
2022-12-05T22:29:06.544Z,98319.00
2022-12-05T22:31:41.436Z,98318.00
2022-12-05T22:34:16.478Z,98306.00
2022-12-05T22:36:52.191Z,98311.00
2022-12-05T22:39:27.193Z,98312.00
2022-12-05T22:42:02.079Z,98311.00
2022-12-05T22:44:36.973Z,98312.00
2022-12-05T22:47:11.828Z,98314.00
2022-12-05T22:49:47.403Z,98305.00
2022-12-05T22:52:22.224Z,98298.00
2022-12-05T22:54:57.417Z,98295.00
2022-12-05T22:57:32.657Z,98298.00
2022-12-05T23:00:08.503Z,98288.00
2022-12-05T23:02:44.174Z,98291.00
2022-12-05T23:05:19.041Z,98292.00
2022-12-05T23:07:54.188Z,98295.00
2022-12-05T23:10:29.602Z,98293.00
2022-12-05T23:13:06.082Z,98292.00
2022-12-05T23:15:41.098Z,98286.00
2022-12-05T23:18:16.487Z,98293.00
2022-12-05T23:20:51.416Z,98289.00
2022-12-05T23:23:26.304Z,98293.00
2022-12-05T23:26:01.701Z,98289.00
2022-12-05T23:28:37.006Z,98279.00
2022-12-05T23:31:13.150Z,98296.00
2022-12-05T23:33:51.474Z,98292.00
2022-12-05T23:36:26.788Z,98286.00
2022-12-05T23:39:02.434Z,98290.00
2022-12-05T23:41:37.501Z,98278.00
2022-12-05T23:44:12.637Z,98284.00
2022-12-05T23:46:47.575Z,98279.00
2022-12-05T23:49:22.574Z,98290.00
2022-12-05T23:51:57.456Z,98283.00
2022-12-05T23:54:34.095Z,98282.00
2022-12-05T23:57:13.309Z,98271.00
2022-12-05T23:59:51.296Z,98272.00
